sensor_id;sensor_type;location;lat;lon;timestamp;temperature;humidity
23869;DHT22;12115;47.128;15.422;2023-05-07T00:02:13;15.20;99.90
23869;DHT22;12115;47.128;15.422;2023-05-07T00:04:41;15.20;99.90
23869;DHT22;12115;47.128;15.422;2023-05-07T00:07:07;15.10;99.90
23869;DHT22;12115;47.128;15.422;2023-05-07T00:09:36;15.00;99.90
23869;DHT22;12115;47.128;15.422;2023-05-07T00:12:03;15.10;99.90
23869;DHT22;12115;47.128;15.422;2023-05-07T00:14:30;15.10;99.90
23869;DHT22;12115;47.128;15.422;2023-05-07T00:16:57;15.10;99.90
23869;DHT22;12115;47.128;15.422;2023-05-07T00:19:24;15.10;99.90
23869;DHT22;12115;47.128;15.422;2023-05-07T00:21:51;15.10;99.90
23869;DHT22;12115;47.128;15.422;2023-05-07T00:24:20;15.10;99.90
23869;DHT22;12115;47.128;15.422;2023-05-07T00:26:47;15.00;99.90
23869;DHT22;12115;47.128;15.422;2023-05-07T00:29:14;15.00;99.90
23869;DHT22;12115;47.128;15.422;2023-05-07T00:31:41;15.00;99.90
23869;DHT22;12115;47.128;15.422;2023-05-07T00:34:08;15.00;99.90
23869;DHT22;12115;47.128;15.422;2023-05-07T00:36:35;15.00;99.90
23869;DHT22;12115;47.128;15.422;2023-05-07T00:39:02;15.00;99.90
23869;DHT22;12115;47.128;15.422;2023-05-07T00:41:30;15.00;99.90
23869;DHT22;12115;47.128;15.422;2023-05-07T00:43:57;15.00;99.90
23869;DHT22;12115;47.128;15.422;2023-05-07T00:46:24;15.00;99.90
23869;DHT22;12115;47.128;15.422;2023-05-07T00:48:53;15.00;99.90
23869;DHT22;12115;47.128;15.422;2023-05-07T00:51:20;15.00;99.90
23869;DHT22;12115;47.128;15.422;2023-05-07T00:53:47;14.90;99.90
23869;DHT22;12115;47.128;15.422;2023-05-07T00:56:14;14.80;99.90
23869;DHT22;12115;47.128;15.422;2023-05-07T00:58:42;14.80;99.90
23869;DHT22;12115;47.128;15.422;2023-05-07T01:01:09;14.80;99.90
23869;DHT22;12115;47.128;15.422;2023-05-07T01:03:36;14.80;99.90
23869;DHT22;12115;47.128;15.422;2023-05-07T01:06:05;14.80;99.90
23869;DHT22;12115;47.128;15.422;2023-05-07T01:08:33;14.70;99.90
23869;DHT22;12115;47.128;15.422;2023-05-07T01:11:01;14.70;99.90
23869;DHT22;12115;47.128;15.422;2023-05-07T01:13:29;14.70;99.90
23869;DHT22;12115;47.128;15.422;2023-05-07T01:15:56;14.60;99.90
23869;DHT22;12115;47.128;15.422;2023-05-07T01:18:23;14.50;99.90
23869;DHT22;12115;47.128;15.422;2023-05-07T01:20:52;14.50;99.90
23869;DHT22;12115;47.128;15.422;2023-05-07T01:23:19;14.50;99.90
23869;DHT22;12115;47.128;15.422;2023-05-07T01:25:54;14.40;99.90
23869;DHT22;12115;47.128;15.422;2023-05-07T01:28:23;14.40;99.90
23869;DHT22;12115;47.128;15.422;2023-05-07T01:30:54;14.20;99.90
23869;DHT22;12115;47.128;15.422;2023-05-07T01:33:23;14.20;99.90
23869;DHT22;12115;47.128;15.422;2023-05-07T01:35:53;14.20;99.90
23869;DHT22;12115;47.128;15.422;2023-05-07T01:38:23;14.10;99.90
23869;DHT22;12115;47.128;15.422;2023-05-07T01:40:50;14.10;99.90
23869;DHT22;12115;47.128;15.422;2023-05-07T01:43:19;14.00;99.90
23869;DHT22;12115;47.128;15.422;2023-05-07T01:45:46;14.00;99.90
23869;DHT22;12115;47.128;15.422;2023-05-07T01:48:14;13.80;99.90
23869;DHT22;12115;47.128;15.422;2023-05-07T01:50:43;13.80;99.90
23869;DHT22;12115;47.128;15.422;2023-05-07T01:53:11;13.80;99.90
23869;DHT22;12115;47.128;15.422;2023-05-07T01:55:38;13.70;99.90
23869;DHT22;12115;47.128;15.422;2023-05-07T01:58:05;13.80;99.90
23869;DHT22;12115;47.128;15.422;2023-05-07T02:00:32;13.70;99.90
23869;DHT22;12115;47.128;15.422;2023-05-07T02:05:44;13.70;99.90
23869;DHT22;12115;47.128;15.422;2023-05-07T02:08:21;13.60;99.90
23869;DHT22;12115;47.128;15.422;2023-05-07T02:10:49;13.60;99.90
23869;DHT22;12115;47.128;15.422;2023-05-07T02:13:18;13.50;99.90
23869;DHT22;12115;47.128;15.422;2023-05-07T02:15:47;13.50;99.90
23869;DHT22;12115;47.128;15.422;2023-05-07T02:18:17;13.40;99.90
23869;DHT22;12115;47.128;15.422;2023-05-07T02:20:45;13.40;99.90
23869;DHT22;12115;47.128;15.422;2023-05-07T02:23:12;13.40;99.90
23869;DHT22;12115;47.128;15.422;2023-05-07T02:25:39;13.30;99.90
23869;DHT22;12115;47.128;15.422;2023-05-07T02:28:07;13.30;99.90
23869;DHT22;12115;47.128;15.422;2023-05-07T02:30:47;13.30;99.90
23869;DHT22;12115;47.128;15.422;2023-05-07T02:33:15;13.30;99.90
23869;DHT22;12115;47.128;15.422;2023-05-07T02:35:42;13.20;99.90
23869;DHT22;12115;47.128;15.422;2023-05-07T02:38:11;13.00;99.90
23869;DHT22;12115;47.128;15.422;2023-05-07T02:40:40;12.90;99.90
23869;DHT22;12115;47.128;15.422;2023-05-07T02:43:08;12.90;99.90
23869;DHT22;12115;47.128;15.422;2023-05-07T02:45:36;12.90;99.90
23869;DHT22;12115;47.128;15.422;2023-05-07T02:48:06;12.90;99.90
23869;DHT22;12115;47.128;15.422;2023-05-07T02:50:34;12.90;99.90
23869;DHT22;12115;47.128;15.422;2023-05-07T02:53:01;12.90;99.90
23869;DHT22;12115;47.128;15.422;2023-05-07T02:55:29;12.90;99.90
23869;DHT22;12115;47.128;15.422;2023-05-07T02:57:56;12.90;99.90
23869;DHT22;12115;47.128;15.422;2023-05-07T03:00:25;12.80;99.90
23869;DHT22;12115;47.128;15.422;2023-05-07T03:03:07;12.80;99.90
23869;DHT22;12115;47.128;15.422;2023-05-07T03:05:34;12.80;99.90
23869;DHT22;12115;47.128;15.422;2023-05-07T03:08:02;12.60;99.90
23869;DHT22;12115;47.128;15.422;2023-05-07T03:10:30;12.40;99.90
23869;DHT22;12115;47.128;15.422;2023-05-07T03:12:57;12.40;99.90
23869;DHT22;12115;47.128;15.422;2023-05-07T03:15:24;12.50;99.90
23869;DHT22;12115;47.128;15.422;2023-05-07T03:17:52;12.50;99.90
23869;DHT22;12115;47.128;15.422;2023-05-07T03:20:19;12.50;99.90
23869;DHT22;12115;47.128;15.422;2023-05-07T03:22:49;12.50;99.90
23869;DHT22;12115;47.128;15.422;2023-05-07T03:25:16;12.50;99.90
23869;DHT22;12115;47.128;15.422;2023-05-07T03:27:43;12.40;99.90
23869;DHT22;12115;47.128;15.422;2023-05-07T03:30:11;12.40;99.90
23869;DHT22;12115;47.128;15.422;2023-05-07T03:32:39;12.40;99.90
23869;DHT22;12115;47.128;15.422;2023-05-07T03:35:10;12.30;99.90
23869;DHT22;12115;47.128;15.422;2023-05-07T03:37:38;12.30;99.90
23869;DHT22;12115;47.128;15.422;2023-05-07T03:40:06;12.30;99.90
23869;DHT22;12115;47.128;15.422;2023-05-07T03:42:42;12.20;99.90
23869;DHT22;12115;47.128;15.422;2023-05-07T03:45:10;12.20;99.90
23869;DHT22;12115;47.128;15.422;2023-05-07T03:47:42;12.20;99.90
23869;DHT22;12115;47.128;15.422;2023-05-07T03:50:11;12.10;99.90
23869;DHT22;12115;47.128;15.422;2023-05-07T03:52:54;12.10;99.90
23869;DHT22;12115;47.128;15.422;2023-05-07T03:55:23;12.10;99.90
23869;DHT22;12115;47.128;15.422;2023-05-07T03:57:55;12.00;99.90
23869;DHT22;12115;47.128;15.422;2023-05-07T04:00:25;11.90;99.90
23869;DHT22;12115;47.128;15.422;2023-05-07T04:02:57;12.00;99.90
23869;DHT22;12115;47.128;15.422;2023-05-07T04:05:26;11.90;99.90
23869;DHT22;12115;47.128;15.422;2023-05-07T04:07:58;12.00;99.90
23869;DHT22;12115;47.128;15.422;2023-05-07T04:10:33;12.00;99.90
23869;DHT22;12115;47.128;15.422;2023-05-07T04:13:05;12.00;99.90
23869;DHT22;12115;47.128;15.422;2023-05-07T04:15:32;12.00;99.90
23869;DHT22;12115;47.128;15.422;2023-05-07T04:18:03;12.00;99.90
23869;DHT22;12115;47.128;15.422;2023-05-07T04:20:34;12.00;99.90
23869;DHT22;12115;47.128;15.422;2023-05-07T04:23:06;12.00;99.90
23869;DHT22;12115;47.128;15.422;2023-05-07T04:25:34;12.00;99.90
23869;DHT22;12115;47.128;15.422;2023-05-07T04:28:10;12.00;99.90
23869;DHT22;12115;47.128;15.422;2023-05-07T04:30:39;12.00;99.90
23869;DHT22;12115;47.128;15.422;2023-05-07T04:33:07;12.00;99.90
23869;DHT22;12115;47.128;15.422;2023-05-07T04:35:35;12.00;99.90
23869;DHT22;12115;47.128;15.422;2023-05-07T04:38:04;12.00;99.90
23869;DHT22;12115;47.128;15.422;2023-05-07T04:40:32;12.00;99.90
23869;DHT22;12115;47.128;15.422;2023-05-07T04:43:02;12.00;99.90
23869;DHT22;12115;47.128;15.422;2023-05-07T04:45:32;11.90;99.90
23869;DHT22;12115;47.128;15.422;2023-05-07T04:48:00;12.00;99.90
23869;DHT22;12115;47.128;15.422;2023-05-07T04:50:29;12.00;99.90
23869;DHT22;12115;47.128;15.422;2023-05-07T04:53:01;12.10;99.90
23869;DHT22;12115;47.128;15.422;2023-05-07T04:55:28;12.10;99.90
23869;DHT22;12115;47.128;15.422;2023-05-07T04:57:56;12.10;99.90
23869;DHT22;12115;47.128;15.422;2023-05-07T05:00:25;12.10;99.90
23869;DHT22;12115;47.128;15.422;2023-05-07T05:02:54;12.20;99.90
23869;DHT22;12115;47.128;15.422;2023-05-07T05:05:25;12.20;99.90
23869;DHT22;12115;47.128;15.422;2023-05-07T05:07:56;12.20;99.90
23869;DHT22;12115;47.128;15.422;2023-05-07T05:13:32;12.30;99.90
23869;DHT22;12115;47.128;15.422;2023-05-07T05:16:26;12.30;99.90
23869;DHT22;12115;47.128;15.422;2023-05-07T05:19:19;12.40;99.90
23869;DHT22;12115;47.128;15.422;2023-05-07T05:25:17;12.50;99.90
23869;DHT22;12115;47.128;15.422;2023-05-07T05:27:45;12.50;99.90
23869;DHT22;12115;47.128;15.422;2023-05-07T05:30:13;12.60;99.90
23869;DHT22;12115;47.128;15.422;2023-05-07T05:33:09;12.60;99.90
23869;DHT22;12115;47.128;15.422;2023-05-07T05:35:37;12.70;99.90
23869;DHT22;12115;47.128;15.422;2023-05-07T05:38:09;12.70;99.90
23869;DHT22;12115;47.128;15.422;2023-05-07T05:40:37;12.80;99.90
23869;DHT22;12115;47.128;15.422;2023-05-07T05:43:30;12.80;99.90
23869;DHT22;12115;47.128;15.422;2023-05-07T05:45:58;12.90;99.90
23869;DHT22;12115;47.128;15.422;2023-05-07T05:48:26;13.00;99.90
23869;DHT22;12115;47.128;15.422;2023-05-07T05:50:53;13.00;99.90
23869;DHT22;12115;47.128;15.422;2023-05-07T05:53:21;13.10;99.90
23869;DHT22;12115;47.128;15.422;2023-05-07T05:55:49;13.10;99.90
23869;DHT22;12115;47.128;15.422;2023-05-07T05:58:16;13.20;99.90
23869;DHT22;12115;47.128;15.422;2023-05-07T06:00:50;13.30;99.90
23869;DHT22;12115;47.128;15.422;2023-05-07T06:06:23;13.40;99.90
23869;DHT22;12115;47.128;15.422;2023-05-07T06:08:51;13.50;99.90
23869;DHT22;12115;47.128;15.422;2023-05-07T06:11:24;13.50;99.90
23869;DHT22;12115;47.128;15.422;2023-05-07T06:13:52;13.60;99.90
23869;DHT22;12115;47.128;15.422;2023-05-07T06:16:19;13.60;99.90
23869;DHT22;12115;47.128;15.422;2023-05-07T06:18:47;13.70;99.90
23869;DHT22;12115;47.128;15.422;2023-05-07T06:21:15;13.70;99.90
23869;DHT22;12115;47.128;15.422;2023-05-07T06:23:42;13.70;99.90
23869;DHT22;12115;47.128;15.422;2023-05-07T06:26:32;13.80;99.90
23869;DHT22;12115;47.128;15.422;2023-05-07T06:28:59;13.90;99.90
23869;DHT22;12115;47.128;15.422;2023-05-07T06:31:30;14.00;99.90
23869;DHT22;12115;47.128;15.422;2023-05-07T06:34:02;14.10;99.90
23869;DHT22;12115;47.128;15.422;2023-05-07T06:36:34;14.20;99.90
23869;DHT22;12115;47.128;15.422;2023-05-07T06:39:10;14.20;99.90
23869;DHT22;12115;47.128;15.422;2023-05-07T06:41:37;14.30;99.90
23869;DHT22;12115;47.128;15.422;2023-05-07T06:44:34;14.50;99.90
23869;DHT22;12115;47.128;15.422;2023-05-07T06:47:20;14.50;99.90
23869;DHT22;12115;47.128;15.422;2023-05-07T06:49:52;14.80;99.90
23869;DHT22;12115;47.128;15.422;2023-05-07T06:52:31;15.00;99.90
23869;DHT22;12115;47.128;15.422;2023-05-07T06:55:24;15.10;99.90
23869;DHT22;12115;47.128;15.422;2023-05-07T06:57:52;15.10;99.90
23869;DHT22;12115;47.128;15.422;2023-05-07T07:00:21;15.10;99.90
23869;DHT22;12115;47.128;15.422;2023-05-07T07:02:54;15.20;99.90
23869;DHT22;12115;47.128;15.422;2023-05-07T07:05:24;15.30;99.90
23869;DHT22;12115;47.128;15.422;2023-05-07T07:07:52;15.50;99.90
23869;DHT22;12115;47.128;15.422;2023-05-07T07:10:22;15.50;99.90
23869;DHT22;12115;47.128;15.422;2023-05-07T07:13:02;15.70;99.90
23869;DHT22;12115;47.128;15.422;2023-05-07T07:16:00;15.80;99.90
23869;DHT22;12115;47.128;15.422;2023-05-07T07:18:53;16.00;99.90
23869;DHT22;12115;47.128;15.422;2023-05-07T07:21:21;16.00;99.90
23869;DHT22;12115;47.128;15.422;2023-05-07T07:23:48;16.20;99.90
23869;DHT22;12115;47.128;15.422;2023-05-07T07:29:29;16.30;99.90
23869;DHT22;12115;47.128;15.422;2023-05-07T07:32:25;16.50;99.90
23869;DHT22;12115;47.128;15.422;2023-05-07T07:34:53;16.60;99.90
23869;DHT22;12115;47.128;15.422;2023-05-07T07:37:21;16.60;99.90
23869;DHT22;12115;47.128;15.422;2023-05-07T07:39:49;16.70;99.90
23869;DHT22;12115;47.128;15.422;2023-05-07T07:42:28;16.70;99.90
23869;DHT22;12115;47.128;15.422;2023-05-07T07:44:57;16.80;99.90
23869;DHT22;12115;47.128;15.422;2023-05-07T07:47:53;16.90;99.90
23869;DHT22;12115;47.128;15.422;2023-05-07T07:50:21;17.00;99.90
23869;DHT22;12115;47.128;15.422;2023-05-07T07:53:08;17.00;99.90
23869;DHT22;12115;47.128;15.422;2023-05-07T07:55:39;17.00;99.90
23869;DHT22;12115;47.128;15.422;2023-05-07T07:58:10;17.00;99.90
23869;DHT22;12115;47.128;15.422;2023-05-07T08:00:37;17.10;99.90
23869;DHT22;12115;47.128;15.422;2023-05-07T08:07:01;17.40;99.90
23869;DHT22;12115;47.128;15.422;2023-05-07T08:09:31;17.50;99.90
23869;DHT22;12115;47.128;15.422;2023-05-07T08:12:00;17.60;99.90
23869;DHT22;12115;47.128;15.422;2023-05-07T08:14:31;17.70;99.90
23869;DHT22;12115;47.128;15.422;2023-05-07T08:16:59;17.90;99.90
23869;DHT22;12115;47.128;15.422;2023-05-07T08:19:27;17.80;99.90
23869;DHT22;12115;47.128;15.422;2023-05-07T08:21:55;17.90;99.90
23869;DHT22;12115;47.128;15.422;2023-05-07T08:24:45;18.00;99.90
23869;DHT22;12115;47.128;15.422;2023-05-07T08:27:18;18.10;99.90
23869;DHT22;12115;47.128;15.422;2023-05-07T08:29:48;18.10;99.90
23869;DHT22;12115;47.128;15.422;2023-05-07T08:32:19;18.10;99.90
23869;DHT22;12115;47.128;15.422;2023-05-07T08:35:05;18.10;99.90
23869;DHT22;12115;47.128;15.422;2023-05-07T08:37:32;18.20;99.90
23869;DHT22;12115;47.128;15.422;2023-05-07T08:40:33;18.40;99.90
23869;DHT22;12115;47.128;15.422;2023-05-07T08:43:06;18.50;99.90
23869;DHT22;12115;47.128;15.422;2023-05-07T08:49:07;18.50;99.90
23869;DHT22;12115;47.128;15.422;2023-05-07T08:51:35;18.50;99.90
23869;DHT22;12115;47.128;15.422;2023-05-07T08:54:03;18.60;99.90
23869;DHT22;12115;47.128;15.422;2023-05-07T08:56:38;18.50;99.90
23869;DHT22;12115;47.128;15.422;2023-05-07T08:59:06;18.40;99.90
23869;DHT22;12115;47.128;15.422;2023-05-07T09:01:34;18.60;99.90
23869;DHT22;12115;47.128;15.422;2023-05-07T09:04:24;18.70;99.90
23869;DHT22;12115;47.128;15.422;2023-05-07T09:06:52;18.80;99.90
23869;DHT22;12115;47.128;15.422;2023-05-07T09:09:22;19.00;99.90
23869;DHT22;12115;47.128;15.422;2023-05-07T09:11:58;19.00;99.90
23869;DHT22;12115;47.128;15.422;2023-05-07T09:14:29;19.00;99.90
23869;DHT22;12115;47.128;15.422;2023-05-07T09:16:59;19.00;99.90
23869;DHT22;12115;47.128;15.422;2023-05-07T09:19:27;19.20;99.90
23869;DHT22;12115;47.128;15.422;2023-05-07T09:22:32;19.50;99.90
23869;DHT22;12115;47.128;15.422;2023-05-07T09:25:31;19.50;99.90
23869;DHT22;12115;47.128;15.422;2023-05-07T09:28:04;19.60;99.90
23869;DHT22;12115;47.128;15.422;2023-05-07T09:30:39;19.60;99.90
23869;DHT22;12115;47.128;15.422;2023-05-07T09:33:08;19.80;99.90
23869;DHT22;12115;47.128;15.422;2023-05-07T09:35:39;19.90;99.90
23869;DHT22;12115;47.128;15.422;2023-05-07T09:38:12;20.00;99.90
23869;DHT22;12115;47.128;15.422;2023-05-07T09:41:09;20.00;99.90
23869;DHT22;12115;47.128;15.422;2023-05-07T09:44:02;19.90;99.90
23869;DHT22;12115;47.128;15.422;2023-05-07T09:47:10;20.10;99.90
23869;DHT22;12115;47.128;15.422;2023-05-07T09:49:47;20.50;99.90
23869;DHT22;12115;47.128;15.422;2023-05-07T09:52:19;20.60;99.90
23869;DHT22;12115;47.128;15.422;2023-05-07T09:54:51;20.30;99.90
23869;DHT22;12115;47.128;15.422;2023-05-07T09:57:25;20.10;99.90
23869;DHT22;12115;47.128;15.422;2023-05-07T09:59:59;20.10;99.90
23869;DHT22;12115;47.128;15.422;2023-05-07T10:02:49;20.30;99.90
23869;DHT22;12115;47.128;15.422;2023-05-07T10:05:30;20.50;99.90
23869;DHT22;12115;47.128;15.422;2023-05-07T10:08:21;20.20;99.90
23869;DHT22;12115;47.128;15.422;2023-05-07T10:10:56;20.20;99.90
23869;DHT22;12115;47.128;15.422;2023-05-07T10:13:27;20.40;99.90
23869;DHT22;12115;47.128;15.422;2023-05-07T10:15:57;20.50;99.90
23869;DHT22;12115;47.128;15.422;2023-05-07T10:18:40;20.70;99.90
23869;DHT22;12115;47.128;15.422;2023-05-07T10:21:20;20.50;99.90
23869;DHT22;12115;47.128;15.422;2023-05-07T10:23:59;20.30;99.90
23869;DHT22;12115;47.128;15.422;2023-05-07T10:26:30;20.30;99.90
23869;DHT22;12115;47.128;15.422;2023-05-07T10:29:07;20.30;99.90
23869;DHT22;12115;47.128;15.422;2023-05-07T10:31:55;20.40;99.90
23869;DHT22;12115;47.128;15.422;2023-05-07T10:34:29;20.40;99.90
23869;DHT22;12115;47.128;15.422;2023-05-07T10:37:00;20.50;99.90
23869;DHT22;12115;47.128;15.422;2023-05-07T10:39:29;20.70;99.90
23869;DHT22;12115;47.128;15.422;2023-05-07T10:42:10;20.70;99.90
23869;DHT22;12115;47.128;15.422;2023-05-07T10:44:41;20.70;99.90
23869;DHT22;12115;47.128;15.422;2023-05-07T10:48:05;20.90;99.90
23869;DHT22;12115;47.128;15.422;2023-05-07T10:50:27;21.10;99.90
23869;DHT22;12115;47.128;15.422;2023-05-07T10:56:32;20.70;99.90
23869;DHT22;12115;47.128;15.422;2023-05-07T10:59:31;20.70;99.90
23869;DHT22;12115;47.128;15.422;2023-05-07T11:02:08;20.80;99.90
23869;DHT22;12115;47.128;15.422;2023-05-07T11:05:23;20.90;99.90
23869;DHT22;12115;47.128;15.422;2023-05-07T11:07:59;20.90;99.90
23869;DHT22;12115;47.128;15.422;2023-05-07T11:10:53;20.80;99.90
23869;DHT22;12115;47.128;15.422;2023-05-07T11:13:44;20.80;99.90
23869;DHT22;12115;47.128;15.422;2023-05-07T11:20:04;20.90;99.90
23869;DHT22;12115;47.128;15.422;2023-05-07T11:22:43;21.10;99.90
23869;DHT22;12115;47.128;15.422;2023-05-07T11:25:30;21.10;99.90
23869;DHT22;12115;47.128;15.422;2023-05-07T11:28:07;21.10;99.90
23869;DHT22;12115;47.128;15.422;2023-05-07T11:30:42;21.00;99.90
23869;DHT22;12115;47.128;15.422;2023-05-07T11:33:12;21.10;99.90
23869;DHT22;12115;47.128;15.422;2023-05-07T11:35:44;21.10;99.90
23869;DHT22;12115;47.128;15.422;2023-05-07T11:38:14;21.00;99.90
23869;DHT22;12115;47.128;15.422;2023-05-07T11:40:53;21.00;99.90
23869;DHT22;12115;47.128;15.422;2023-05-07T11:43:20;20.90;99.90
23869;DHT22;12115;47.128;15.422;2023-05-07T11:45:48;21.00;99.90
23869;DHT22;12115;47.128;15.422;2023-05-07T11:48:16;21.10;99.90
23869;DHT22;12115;47.128;15.422;2023-05-07T11:50:50;21.30;99.90
23869;DHT22;12115;47.128;15.422;2023-05-07T11:53:25;21.30;99.90
23869;DHT22;12115;47.128;15.422;2023-05-07T11:55:53;21.10;99.90
23869;DHT22;12115;47.128;15.422;2023-05-07T11:58:22;21.10;99.90
23869;DHT22;12115;47.128;15.422;2023-05-07T12:00:50;21.20;99.90
23869;DHT22;12115;47.128;15.422;2023-05-07T12:03:17;21.20;99.90
23869;DHT22;12115;47.128;15.422;2023-05-07T12:05:45;21.20;99.90
23869;DHT22;12115;47.128;15.422;2023-05-07T12:08:16;21.30;99.90
23869;DHT22;12115;47.128;15.422;2023-05-07T12:10:45;21.40;99.90
23869;DHT22;12115;47.128;15.422;2023-05-07T12:15:43;21.70;99.90
23869;DHT22;12115;47.128;15.422;2023-05-07T12:18:11;21.80;99.90
23869;DHT22;12115;47.128;15.422;2023-05-07T12:20:38;22.00;99.90
23869;DHT22;12115;47.128;15.422;2023-05-07T12:23:05;22.00;99.90
23869;DHT22;12115;47.128;15.422;2023-05-07T12:25:36;21.90;99.90
23869;DHT22;12115;47.128;15.422;2023-05-07T12:28:04;21.60;99.90
23869;DHT22;12115;47.128;15.422;2023-05-07T12:30:38;21.60;99.90
23869;DHT22;12115;47.128;15.422;2023-05-07T12:33:05;21.40;99.90
23869;DHT22;12115;47.128;15.422;2023-05-07T12:35:37;21.20;99.90
23869;DHT22;12115;47.128;15.422;2023-05-07T12:38:11;21.20;99.90
23869;DHT22;12115;47.128;15.422;2023-05-07T12:40:55;21.10;99.90
23869;DHT22;12115;47.128;15.422;2023-05-07T12:43:27;21.10;99.90
23869;DHT22;12115;47.128;15.422;2023-05-07T12:45:56;21.10;99.90
23869;DHT22;12115;47.128;15.422;2023-05-07T12:48:23;21.00;99.90
23869;DHT22;12115;47.128;15.422;2023-05-07T12:50:51;21.00;99.90
23869;DHT22;12115;47.128;15.422;2023-05-07T12:53:21;20.90;99.90
23869;DHT22;12115;47.128;15.422;2023-05-07T12:55:50;20.80;99.90
23869;DHT22;12115;47.128;15.422;2023-05-07T12:58:29;20.80;99.90
23869;DHT22;12115;47.128;15.422;2023-05-07T13:00:58;20.70;99.90
23869;DHT22;12115;47.128;15.422;2023-05-07T13:03:31;20.60;99.90
23869;DHT22;12115;47.128;15.422;2023-05-07T13:06:01;20.60;99.90
23869;DHT22;12115;47.128;15.422;2023-05-07T13:08:33;20.40;99.90
23869;DHT22;12115;47.128;15.422;2023-05-07T13:11:01;20.10;99.90
23869;DHT22;12115;47.128;15.422;2023-05-07T13:13:32;20.00;99.90
23869;DHT22;12115;47.128;15.422;2023-05-07T13:16:02;19.90;99.90
23869;DHT22;12115;47.128;15.422;2023-05-07T13:18:31;19.90;99.90
23869;DHT22;12115;47.128;15.422;2023-05-07T13:20:59;19.90;99.90
23869;DHT22;12115;47.128;15.422;2023-05-07T13:23:27;19.80;99.90
23869;DHT22;12115;47.128;15.422;2023-05-07T13:25:54;19.60;99.90
23869;DHT22;12115;47.128;15.422;2023-05-07T13:28:25;19.50;99.90
23869;DHT22;12115;47.128;15.422;2023-05-07T13:30:53;19.40;99.90
23869;DHT22;12115;47.128;15.422;2023-05-07T13:33:21;19.20;99.90
23869;DHT22;12115;47.128;15.422;2023-05-07T13:35:48;19.10;99.90
23869;DHT22;12115;47.128;15.422;2023-05-07T13:38:15;18.90;99.90
23869;DHT22;12115;47.128;15.422;2023-05-07T13:40:42;18.80;99.90
23869;DHT22;12115;47.128;15.422;2023-05-07T13:43:09;18.80;99.90
23869;DHT22;12115;47.128;15.422;2023-05-07T13:45:37;18.70;99.90
23869;DHT22;12115;47.128;15.422;2023-05-07T13:48:04;18.70;99.90
23869;DHT22;12115;47.128;15.422;2023-05-07T13:50:31;18.60;99.90
23869;DHT22;12115;47.128;15.422;2023-05-07T13:52:58;18.40;99.90
23869;DHT22;12115;47.128;15.422;2023-05-07T13:55:25;18.40;99.90
23869;DHT22;12115;47.128;15.422;2023-05-07T13:58:00;18.30;99.90
23869;DHT22;12115;47.128;15.422;2023-05-07T14:00:28;18.10;99.90
23869;DHT22;12115;47.128;15.422;2023-05-07T14:02:56;18.00;99.90
23869;DHT22;12115;47.128;15.422;2023-05-07T14:05:23;17.90;99.90
23869;DHT22;12115;47.128;15.422;2023-05-07T14:07:51;18.10;99.90
23869;DHT22;12115;47.128;15.422;2023-05-07T14:10:18;18.00;99.90
23869;DHT22;12115;47.128;15.422;2023-05-07T14:12:46;17.90;99.90
23869;DHT22;12115;47.128;15.422;2023-05-07T14:15:15;17.90;99.90
23869;DHT22;12115;47.128;15.422;2023-05-07T14:17:43;18.00;99.90
23869;DHT22;12115;47.128;15.422;2023-05-07T14:20:11;18.10;99.90
23869;DHT22;12115;47.128;15.422;2023-05-07T14:22:39;18.10;99.90
23869;DHT22;12115;47.128;15.422;2023-05-07T14:25:06;18.10;99.90
23869;DHT22;12115;47.128;15.422;2023-05-07T14:27:33;18.10;99.90
23869;DHT22;12115;47.128;15.422;2023-05-07T14:30:01;18.10;99.90
23869;DHT22;12115;47.128;15.422;2023-05-07T14:32:27;18.10;99.90
23869;DHT22;12115;47.128;15.422;2023-05-07T14:34:54;18.00;99.90
23869;DHT22;12115;47.128;15.422;2023-05-07T14:37:21;17.90;99.90
23869;DHT22;12115;47.128;15.422;2023-05-07T14:39:48;17.90;99.90
23869;DHT22;12115;47.128;15.422;2023-05-07T14:42:17;17.90;99.90
23869;DHT22;12115;47.128;15.422;2023-05-07T14:44:45;17.90;99.90
23869;DHT22;12115;47.128;15.422;2023-05-07T14:47:13;17.90;99.90
23869;DHT22;12115;47.128;15.422;2023-05-07T14:49:42;17.70;99.90
23869;DHT22;12115;47.128;15.422;2023-05-07T14:52:09;17.50;99.90
23869;DHT22;12115;47.128;15.422;2023-05-07T14:54:37;17.40;99.90
23869;DHT22;12115;47.128;15.422;2023-05-07T14:57:05;17.30;99.90
23869;DHT22;12115;47.128;15.422;2023-05-07T14:59:33;17.20;99.90
23869;DHT22;12115;47.128;15.422;2023-05-07T15:02:00;17.20;99.90
23869;DHT22;12115;47.128;15.422;2023-05-07T15:04:31;17.30;99.90
23869;DHT22;12115;47.128;15.422;2023-05-07T15:06:58;17.30;99.90
23869;DHT22;12115;47.128;15.422;2023-05-07T15:09:26;17.30;99.90
23869;DHT22;12115;47.128;15.422;2023-05-07T15:11:53;17.30;99.90
23869;DHT22;12115;47.128;15.422;2023-05-07T15:14:20;17.40;99.90
23869;DHT22;12115;47.128;15.422;2023-05-07T15:16:48;17.30;99.90
23869;DHT22;12115;47.128;15.422;2023-05-07T15:19:16;17.30;99.90
23869;DHT22;12115;47.128;15.422;2023-05-07T15:21:44;17.40;99.90
23869;DHT22;12115;47.128;15.422;2023-05-07T15:24:11;17.40;99.90
23869;DHT22;12115;47.128;15.422;2023-05-07T15:26:39;17.30;99.90
23869;DHT22;12115;47.128;15.422;2023-05-07T15:29:06;17.40;99.90
23869;DHT22;12115;47.128;15.422;2023-05-07T15:31:37;17.40;99.90
23869;DHT22;12115;47.128;15.422;2023-05-07T15:34:06;17.50;99.90
23869;DHT22;12115;47.128;15.422;2023-05-07T15:36:33;17.50;99.90
23869;DHT22;12115;47.128;15.422;2023-05-07T15:39:01;17.50;99.90
23869;DHT22;12115;47.128;15.422;2023-05-07T15:41:30;17.60;99.90
23869;DHT22;12115;47.128;15.422;2023-05-07T15:43:57;17.60;99.90
23869;DHT22;12115;47.128;15.422;2023-05-07T15:46:25;17.60;99.90
23869;DHT22;12115;47.128;15.422;2023-05-07T15:48:53;17.60;99.90
23869;DHT22;12115;47.128;15.422;2023-05-07T15:51:21;17.50;99.90
23869;DHT22;12115;47.128;15.422;2023-05-07T15:53:49;17.50;99.90
23869;DHT22;12115;47.128;15.422;2023-05-07T15:56:18;17.60;99.90
23869;DHT22;12115;47.128;15.422;2023-05-07T15:58:46;17.60;99.90
23869;DHT22;12115;47.128;15.422;2023-05-07T16:01:14;17.60;99.90
23869;DHT22;12115;47.128;15.422;2023-05-07T16:03:42;17.70;99.90
23869;DHT22;12115;47.128;15.422;2023-05-07T16:06:11;17.70;99.90
23869;DHT22;12115;47.128;15.422;2023-05-07T16:08:39;17.60;99.90
23869;DHT22;12115;47.128;15.422;2023-05-07T16:11:07;17.60;99.90
23869;DHT22;12115;47.128;15.422;2023-05-07T16:13:35;17.60;99.90
23869;DHT22;12115;47.128;15.422;2023-05-07T16:16:03;17.70;99.90